Impacts TAF Board
For situational awareness. Not to be used for flight planning purposes.
IDs:

KIAD - Washington/Dulles In, VA, US

Issued at 0840 UTC 18 Jan 2019
Updated at 1024 UTC 18 Jan 2019
Potential Impact None Slight Moderate High
Time<<18/23Z 19/00Z 19/01Z 19/02Z 19/03Z 19/04Z 19/05Z 19/06Z 19/07Z 19/08Z 19/09Z 19/10Z 19/11Z>>
Type PRVL PRVL PRVL PRVL PRVL PRVL PRVL PRVL PRVL PRVL PRVL PRVL PRVL
VIS >6 >6 >6 >6 >6 >6 >6 >6 >6 >6 >6 >6 >6
CIG -- -- -- -- -- -- -- -- -- -- -- -- --
Cover SCT SCT SCT SCT SCT SCT SCT SCT SCT SCT SCT SCT SCT
FltCat VFR VFR VFR VFR VFR VFR VFR VFR VFR VFR VFR VFR VFR
WX -- -- -- -- -- -- -- -- -- -- -- -- --
WDir 300 300 300 300 300 300 VRB VRB VRB VRB VRB VRB VRB
WSpd 6 6 6 6 6 6 0 0 0 0 0 0 0
WGst -- -- -- -- -- -- -- -- -- -- -- -- --
Raw TAF
KIAD 180840Z 1809/1912 11004KT 3SM -SN BR OVC005
  FM181200 VRB03KT 5SM BR OVC020
  FM181400 26004KT P6SM BKN060
  FM181800 30006KT P6SM SCT250
  FM190500 00000KT P6SM SCT150


METAR Board
Radar Display
Forecast Discussion
For situational awareness. Not to be used for flight planning purposes.